createdAt,value
2022-10-08T00:01:30.272Z,77.42
2022-10-08T00:09:02.824Z,77.79
2022-10-08T00:11:32.771Z,77.43
2022-10-08T00:13:59.265Z,77.29
2022-10-08T00:16:31.202Z,77.15
2022-10-08T00:19:01.097Z,77.04
2022-10-08T00:21:33.631Z,77.00
2022-10-08T00:24:03.931Z,77.13
2022-10-08T00:26:32.173Z,77.11
2022-10-08T00:29:01.827Z,76.97
2022-10-08T00:31:34.710Z,77.05
2022-10-08T00:34:03.742Z,76.80
2022-10-08T00:36:31.913Z,76.93
2022-10-08T00:39:03.760Z,76.72
2022-10-08T00:43:59.883Z,76.68
2022-10-08T00:46:30.726Z,77.02
2022-10-08T00:49:03.029Z,76.76
2022-10-08T00:51:31.925Z,76.51
2022-10-08T00:54:01.101Z,76.56
2022-10-08T00:56:31.253Z,76.73
2022-10-08T00:58:57.659Z,76.83
2022-10-08T01:03:50.360Z,76.64
2022-10-08T01:06:27.459Z,77.00
2022-10-08T01:09:07.218Z,76.91
2022-10-08T01:11:49.526Z,76.93
2022-10-08T01:14:41.461Z,76.81
2022-10-08T01:17:26.657Z,77.05
2022-10-08T01:20:22.484Z,76.69
2022-10-08T01:23:22.203Z,76.74
2022-10-08T01:25:55.617Z,76.68
2022-10-08T01:28:43.684Z,76.91
2022-10-08T01:31:22.057Z,76.93
2022-10-08T01:33:55.129Z,76.59
2022-10-08T01:36:23.303Z,76.33
2022-10-08T01:41:25.013Z,76.61
2022-10-08T01:43:58.890Z,77.32
2022-10-08T01:51:29.020Z,76.90
2022-10-08T01:56:27.454Z,76.82
2022-10-08T01:59:02.398Z,76.88
2022-10-08T02:01:49.832Z,76.78
2022-10-08T02:04:33.073Z,76.74
2022-10-08T02:07:15.217Z,77.25
2022-10-08T02:12:14.304Z,77.29
2022-10-08T02:22:51.058Z,77.35
2022-10-08T02:25:28.143Z,77.51
2022-10-08T02:28:30.132Z,77.32
2022-10-08T02:31:11.482Z,77.47
2022-10-08T02:33:44.340Z,77.30
2022-10-08T02:36:13.872Z,77.51
2022-10-08T02:38:48.773Z,77.65
2022-10-08T02:41:16.904Z,77.48
2022-10-08T02:43:47.561Z,77.47
2022-10-08T02:46:20.301Z,77.55
2022-10-08T02:51:38.020Z,77.77
2022-10-08T02:54:08.773Z,78.23
2022-10-08T02:56:46.630Z,78.29
2022-10-08T02:59:17.964Z,79.21
2022-10-08T03:01:57.368Z,80.53
2022-10-08T03:04:41.266Z,82.78
2022-10-08T03:07:08.328Z,83.67
2022-10-08T03:12:03.760Z,84.14
2022-10-08T03:16:57.394Z,84.84
2022-10-08T03:19:23.903Z,84.38
2022-10-08T03:21:54.476Z,84.87
2022-10-08T03:24:20.844Z,84.81
2022-10-08T03:26:47.141Z,86.32
2022-10-08T03:29:13.617Z,88.78
2022-10-08T03:31:40.008Z,89.95
2022-10-08T03:34:06.327Z,91.14
2022-10-08T03:36:32.712Z,92.25
2022-10-08T03:38:59.099Z,92.73
2022-10-08T03:41:25.526Z,93.48
2022-10-08T03:43:51.880Z,94.25
2022-10-08T03:46:18.276Z,94.37
2022-10-08T03:48:48.592Z,94.85
2022-10-08T03:51:15.504Z,94.88
2022-10-08T03:53:43.382Z,94.88
2022-10-08T03:56:15.869Z,95.07
2022-10-08T03:58:43.385Z,95.14
2022-10-08T04:01:15.621Z,95.55
2022-10-08T04:03:42.213Z,95.77
2022-10-08T04:06:09.016Z,96.03
2022-10-08T04:08:35.872Z,96.44
2022-10-08T04:11:09.885Z,96.37
2022-10-08T04:13:36.869Z,96.57
2022-10-08T04:16:14.947Z,96.64
2022-10-08T04:18:42.070Z,96.74
2022-10-08T04:21:11.468Z,96.86
2022-10-08T04:23:39.845Z,96.83
2022-10-08T04:26:07.102Z,96.83
2022-10-08T04:28:38.645Z,96.91
2022-10-08T04:31:08.231Z,97.02
2022-10-08T04:33:35.815Z,97.11
2022-10-08T04:38:32.701Z,96.90
2022-10-08T04:41:19.656Z,96.63
2022-10-08T04:43:46.665Z,96.42
2022-10-08T04:46:15.873Z,96.08
2022-10-08T04:48:53.251Z,95.90
2022-10-08T04:51:23.115Z,95.52
2022-10-08T04:53:49.967Z,95.76
2022-10-08T04:56:30.865Z,95.86
2022-10-08T04:58:59.130Z,95.67
2022-10-08T05:01:26.611Z,95.74
2022-10-08T05:03:55.989Z,95.95
2022-10-08T05:06:25.057Z,96.03
2022-10-08T05:08:51.745Z,95.88
2022-10-08T05:18:02.981Z,96.22
2022-10-08T05:20:29.282Z,96.13
2022-10-08T05:22:55.595Z,96.23
2022-10-08T05:25:21.934Z,96.17
2022-10-08T05:27:48.229Z,96.29
2022-10-08T05:30:17.525Z,96.35
2022-10-08T05:32:47.622Z,96.19
2022-10-08T05:35:14.261Z,96.02
2022-10-08T05:37:40.559Z,95.92
2022-10-08T05:40:07.264Z,95.59
2022-10-08T05:42:33.594Z,95.75
2022-10-08T05:44:59.917Z,95.54
2022-10-08T05:47:26.230Z,95.54
2022-10-08T05:49:52.549Z,95.73
2022-10-08T05:52:18.875Z,95.81
2022-10-08T05:54:45.280Z,96.00
2022-10-08T05:57:11.597Z,95.95
2022-10-08T05:59:37.944Z,96.03
2022-10-08T06:04:30.545Z,95.95
2022-10-08T06:09:23.241Z,95.97
2022-10-08T06:11:49.926Z,96.26
2022-10-08T06:14:17.005Z,96.12
2022-10-08T06:16:43.636Z,96.06
2022-10-08T06:19:10.503Z,95.69
2022-10-08T06:21:37.434Z,95.97
2022-10-08T06:24:10.381Z,95.81
2022-10-08T06:31:32.541Z,96.13
2022-10-08T06:33:59.086Z,96.07
2022-10-08T06:36:28.047Z,96.27
2022-10-08T06:38:56.753Z,96.00
2022-10-08T06:41:23.930Z,96.11
2022-10-08T06:43:50.337Z,96.12
2022-10-08T06:46:18.164Z,96.05
2022-10-08T06:48:44.955Z,96.12
2022-10-08T06:51:13.509Z,96.32
2022-10-08T06:53:41.037Z,96.57
2022-10-08T06:56:11.112Z,96.59
2022-10-08T06:58:38.272Z,96.56
2022-10-08T07:01:10.723Z,96.88
2022-10-08T07:03:37.663Z,96.70
2022-10-08T07:06:07.060Z,96.39
2022-10-08T07:08:35.876Z,96.24
2022-10-08T07:11:23.080Z,96.50
2022-10-08T07:13:49.503Z,96.60
2022-10-08T07:16:21.555Z,96.66
2022-10-08T07:18:50.333Z,96.68
2022-10-08T07:21:18.321Z,96.72
2022-10-08T07:23:45.191Z,97.02
2022-10-08T07:26:20.335Z,96.88
2022-10-08T07:28:53.758Z,97.07
2022-10-08T07:31:23.252Z,96.78
2022-10-08T07:33:50.232Z,96.88
2022-10-08T07:36:19.631Z,96.67
2022-10-08T07:41:12.967Z,96.68
2022-10-08T07:43:43.028Z,96.82
2022-10-08T07:46:12.460Z,96.71
2022-10-08T07:51:16.917Z,96.93
2022-10-08T07:53:44.324Z,96.83
2022-10-08T07:56:13.291Z,96.78
2022-10-08T07:58:40.933Z,96.70
2022-10-08T08:03:35.543Z,96.64
2022-10-08T08:10:59.316Z,95.76
2022-10-08T08:13:26.081Z,95.66
2022-10-08T08:16:00.119Z,95.52
2022-10-08T08:18:31.203Z,95.97
2022-10-08T08:20:59.107Z,95.54
2022-10-08T08:25:54.766Z,95.36
2022-10-08T08:30:47.532Z,94.31
2022-10-08T08:38:06.553Z,93.99
2022-10-08T08:40:32.913Z,93.89
2022-10-08T08:42:59.311Z,93.25
2022-10-08T08:45:45.964Z,93.27
2022-10-08T08:48:23.453Z,92.73
2022-10-08T08:50:55.204Z,92.81
2022-10-08T08:53:22.776Z,91.90
2022-10-08T08:58:36.417Z,91.33
2022-10-08T09:01:08.925Z,90.25
2022-10-08T09:03:45.964Z,89.40
2022-10-08T09:06:17.042Z,89.35
2022-10-08T09:13:47.728Z,86.90
2022-10-08T09:16:15.737Z,86.15
2022-10-08T09:18:46.497Z,85.33
2022-10-08T09:21:12.996Z,84.91
2022-10-08T09:23:39.355Z,85.03
2022-10-08T09:26:16.315Z,83.83
2022-10-08T09:28:54.403Z,83.46
2022-10-08T09:34:11.202Z,81.79
2022-10-08T09:36:42.407Z,80.32
2022-10-08T09:39:32.122Z,80.85
2022-10-08T09:42:07.435Z,81.51
2022-10-08T09:47:21.600Z,79.49
2022-10-08T09:50:19.082Z,80.67
2022-10-08T09:55:22.497Z,80.01
2022-10-08T09:57:57.584Z,79.17
2022-10-08T10:02:55.601Z,78.20
2022-10-08T10:05:25.367Z,77.54
2022-10-08T10:07:52.369Z,77.32
2022-10-08T10:10:22.428Z,78.15
2022-10-08T10:12:54.095Z,74.09
2022-10-08T10:15:33.733Z,75.00
2022-10-08T10:20:45.430Z,74.36
2022-10-08T10:23:28.909Z,73.83
2022-10-08T10:26:06.790Z,74.51
2022-10-08T10:28:48.211Z,73.49
2022-10-08T10:31:27.514Z,74.21
2022-10-08T10:39:38.303Z,73.06
2022-10-08T10:42:34.070Z,73.73
2022-10-08T10:45:18.344Z,70.27
2022-10-08T10:47:44.947Z,70.11
2022-10-08T10:50:16.380Z,69.80
2022-10-08T10:52:55.331Z,68.03
2022-10-08T11:01:16.263Z,66.94
2022-10-08T11:11:48.069Z,67.19
2022-10-08T11:14:37.804Z,65.94
2022-10-08T11:17:33.736Z,67.09
2022-10-08T11:22:44.591Z,66.04
2022-10-08T11:25:23.643Z,66.73
2022-10-08T11:27:59.152Z,63.35
2022-10-08T11:33:02.131Z,64.74
2022-10-08T11:36:10.347Z,63.46
2022-10-08T11:38:59.991Z,65.46
2022-10-08T11:41:36.616Z,63.94
2022-10-08T11:44:07.526Z,66.16
2022-10-08T11:46:36.499Z,64.31
2022-10-08T11:49:23.996Z,62.88
2022-10-08T11:51:52.232Z,61.65
2022-10-08T11:54:34.439Z,63.26
2022-10-08T11:57:22.067Z,62.63
2022-10-08T11:59:58.220Z,62.54
2022-10-08T12:02:26.600Z,62.89
2022-10-08T12:07:37.852Z,61.47
2022-10-08T12:10:06.922Z,61.61
2022-10-08T12:18:26.126Z,63.66
2022-10-08T12:21:17.792Z,61.98
2022-10-08T12:23:44.776Z,59.94
2022-10-08T12:28:50.634Z,62.65
2022-10-08T12:31:26.111Z,59.07
2022-10-08T12:34:01.326Z,60.82
2022-10-08T12:39:36.084Z,58.95
2022-10-08T12:44:48.898Z,59.45
2022-10-08T12:47:36.964Z,62.26
2022-10-08T12:50:12.481Z,62.00
2022-10-08T12:52:39.182Z,63.17
2022-10-08T12:55:06.347Z,63.01
2022-10-08T13:00:11.158Z,61.92
2022-10-08T13:02:38.788Z,63.69
2022-10-08T13:05:22.816Z,62.43
2022-10-08T13:07:49.988Z,65.32
2022-10-08T13:10:30.354Z,67.53
2022-10-08T13:13:05.333Z,69.01
2022-10-08T13:15:33.528Z,70.87
2022-10-08T13:18:11.648Z,68.06
2022-10-08T13:20:38.021Z,68.86
2022-10-08T13:23:24.102Z,70.63
2022-10-08T13:25:50.463Z,68.98
2022-10-08T13:28:41.705Z,67.22
2022-10-08T13:31:22.536Z,67.02
2022-10-08T13:33:49.021Z,70.06
2022-10-08T13:36:22.479Z,68.17
2022-10-08T13:38:48.936Z,68.60
2022-10-08T13:43:49.817Z,65.29
2022-10-08T13:46:16.672Z,66.39
2022-10-08T13:48:43.885Z,65.40
2022-10-08T13:56:03.854Z,65.18
2022-10-08T13:58:32.240Z,65.93
2022-10-08T14:00:58.718Z,65.99
2022-10-08T14:03:25.090Z,66.30
2022-10-08T14:05:51.858Z,64.24
2022-10-08T14:08:26.948Z,64.84
2022-10-08T14:10:57.756Z,65.73
2022-10-08T14:13:25.036Z,64.92
2022-10-08T14:15:51.465Z,64.68
2022-10-08T14:18:17.893Z,64.33
2022-10-08T14:20:44.361Z,65.04
2022-10-08T14:25:39.076Z,64.19
2022-10-08T14:28:05.468Z,63.02
2022-10-08T14:30:31.911Z,63.20
2022-10-08T14:35:24.666Z,63.44
2022-10-08T14:37:51.326Z,63.32
2022-10-08T14:50:08.471Z,62.93
2022-10-08T14:55:09.892Z,63.43
2022-10-08T14:57:36.235Z,62.63
2022-10-08T15:00:03.008Z,61.74
2022-10-08T15:02:29.384Z,61.23
2022-10-08T15:07:22.335Z,61.93
2022-10-08T15:09:48.724Z,62.62
2022-10-08T15:17:07.844Z,61.51
2022-10-08T15:19:34.366Z,61.04
2022-10-08T15:22:00.703Z,62.11
2022-10-08T15:24:27.220Z,62.36
2022-10-08T15:26:53.550Z,62.16
2022-10-08T15:29:19.940Z,62.63
2022-10-08T15:31:46.417Z,62.17
2022-10-08T15:34:17.397Z,61.79
2022-10-08T15:36:44.030Z,62.07
2022-10-08T15:39:13.370Z,61.77
2022-10-08T15:44:28.932Z,61.62
2022-10-08T15:49:37.350Z,61.40
2022-10-08T15:52:05.998Z,60.88
2022-10-08T15:54:35.449Z,60.96
2022-10-08T15:57:01.863Z,60.01
2022-10-08T15:59:28.282Z,60.18
2022-10-08T16:01:54.724Z,60.96
2022-10-08T16:04:21.187Z,60.87
2022-10-08T16:06:47.635Z,61.43
2022-10-08T16:11:41.700Z,60.80
2022-10-08T16:19:09.048Z,61.67
2022-10-08T16:21:37.083Z,61.59
2022-10-08T16:24:04.297Z,63.57
2022-10-08T16:26:32.177Z,60.78
2022-10-08T16:29:00.937Z,60.63
2022-10-08T16:31:29.462Z,61.22
2022-10-08T16:33:58.658Z,60.97
2022-10-08T16:36:26.080Z,61.79
2022-10-08T16:41:21.832Z,61.64
2022-10-08T16:43:49.864Z,62.68
2022-10-08T16:46:22.301Z,63.16
2022-10-08T16:49:05.962Z,64.03
2022-10-08T16:51:35.731Z,64.76
2022-10-08T16:58:59.999Z,65.21
2022-10-08T17:01:26.858Z,66.15
2022-10-08T17:06:21.490Z,66.27
2022-10-08T17:08:48.500Z,66.26
2022-10-08T17:11:15.415Z,65.94
2022-10-08T17:13:43.563Z,66.54
2022-10-08T17:16:11.426Z,66.74
2022-10-08T17:18:38.843Z,66.79
2022-10-08T17:21:06.717Z,67.20
2022-10-08T17:23:36.703Z,66.98
2022-10-08T17:26:05.792Z,67.61
2022-10-08T17:28:34.945Z,67.64
2022-10-08T17:31:03.509Z,67.63
2022-10-08T17:33:35.355Z,67.31
2022-10-08T17:36:11.781Z,67.49
2022-10-08T17:38:39.482Z,67.92
2022-10-08T17:41:17.462Z,68.34
2022-10-08T17:43:44.827Z,68.60
2022-10-08T17:46:14.575Z,68.91
2022-10-08T17:48:41.944Z,69.37
2022-10-08T17:51:11.855Z,69.31
2022-10-08T17:53:38.796Z,69.45
2022-10-08T17:56:07.666Z,69.79
2022-10-08T17:58:34.034Z,70.02
2022-10-08T18:01:10.441Z,70.23
2022-10-08T18:06:05.131Z,70.65
2022-10-08T18:08:32.499Z,71.62
2022-10-08T18:11:07.550Z,70.89
2022-10-08T18:13:34.890Z,71.44
2022-10-08T18:16:10.212Z,71.66
2022-10-08T18:18:37.201Z,72.12
2022-10-08T18:21:04.912Z,71.87
2022-10-08T18:23:33.279Z,72.06
2022-10-08T18:26:15.350Z,72.55
2022-10-08T18:28:41.746Z,73.21
2022-10-08T18:31:10.565Z,73.46
2022-10-08T18:36:11.651Z,73.74
2022-10-08T18:38:39.118Z,73.80
2022-10-08T18:41:24.857Z,73.86
2022-10-08T18:43:51.413Z,74.49
2022-10-08T18:46:19.262Z,74.86
2022-10-08T18:48:46.213Z,75.20
2022-10-08T18:51:16.863Z,75.38
2022-10-08T18:53:44.252Z,75.48
2022-10-08T18:56:20.627Z,75.68
2022-10-08T19:01:20.381Z,75.68
2022-10-08T19:03:48.911Z,75.61
2022-10-08T19:06:17.180Z,75.72
2022-10-08T19:08:43.684Z,75.85
2022-10-08T19:11:22.136Z,76.16
2022-10-08T19:13:49.027Z,76.56
2022-10-08T19:16:16.331Z,76.78
2022-10-08T19:18:45.304Z,76.82
2022-10-08T19:21:13.269Z,76.78
2022-10-08T19:23:39.957Z,76.48
2022-10-08T19:26:06.700Z,76.23
2022-10-08T19:28:33.725Z,76.12
2022-10-08T19:31:00.267Z,76.28
2022-10-08T19:33:26.660Z,76.34
2022-10-08T19:35:52.994Z,76.44
2022-10-08T19:38:19.337Z,76.63
2022-10-08T19:40:45.688Z,77.10
2022-10-08T19:43:13.731Z,77.64
2022-10-08T19:45:40.091Z,78.11
2022-10-08T19:48:06.515Z,78.43
2022-10-08T19:50:36.553Z,78.80
2022-10-08T19:53:03.888Z,79.14
2022-10-08T19:55:30.309Z,79.34
2022-10-08T19:57:56.642Z,79.46
2022-10-08T20:00:22.986Z,79.37
2022-10-08T20:02:49.665Z,78.77
2022-10-08T20:05:16.225Z,78.73
2022-10-08T20:07:42.607Z,78.80
2022-10-08T20:10:09.402Z,79.15
2022-10-08T20:12:35.767Z,79.40
2022-10-08T20:15:03.038Z,79.70
2022-10-08T20:17:29.367Z,79.80
2022-10-08T20:20:05.360Z,79.86
2022-10-08T20:22:42.014Z,79.99
2022-10-08T20:25:08.508Z,80.10
2022-10-08T20:27:34.985Z,80.17
2022-10-08T20:30:02.623Z,80.45
2022-10-08T20:32:28.965Z,80.54
2022-10-08T20:34:55.363Z,80.79
2022-10-08T20:37:21.729Z,80.98
2022-10-08T20:42:14.426Z,81.26
2022-10-08T20:44:40.808Z,81.39
2022-10-08T20:47:07.215Z,81.41
2022-10-08T20:49:35.958Z,81.52
2022-10-08T20:52:03.826Z,81.69
2022-10-08T20:54:30.216Z,81.85
2022-10-08T20:56:56.989Z,81.98
2022-10-08T20:59:23.451Z,81.99
2022-10-08T21:01:50.296Z,81.89
2022-10-08T21:04:17.179Z,81.97
2022-10-08T21:06:46.188Z,82.08
2022-10-08T21:11:39.888Z,82.54
2022-10-08T21:14:07.871Z,82.50
2022-10-08T21:16:37.366Z,82.48
2022-10-08T21:19:06.744Z,82.64
2022-10-08T21:21:34.313Z,82.81
2022-10-08T21:24:00.700Z,82.91
2022-10-08T21:26:29.662Z,82.97
2022-10-08T21:28:59.086Z,83.02
2022-10-08T21:31:27.874Z,83.11
2022-10-08T21:33:54.852Z,83.31
2022-10-08T21:36:32.039Z,83.31
2022-10-08T21:39:00.016Z,83.24
2022-10-08T21:41:29.766Z,83.44
2022-10-08T21:43:58.452Z,83.46
2022-10-08T21:46:30.988Z,83.87
2022-10-08T21:49:03.775Z,84.01
2022-10-08T21:51:31.591Z,84.24
2022-10-08T21:54:00.328Z,84.33
2022-10-08T21:56:29.819Z,84.62
2022-10-08T21:58:59.062Z,84.85
2022-10-08T22:01:43.211Z,84.96
2022-10-08T22:04:12.237Z,84.73
2022-10-08T22:06:42.291Z,84.64
2022-10-08T22:09:11.808Z,84.37
2022-10-08T22:11:38.936Z,84.13
2022-10-08T22:14:05.706Z,84.03
2022-10-08T22:16:32.623Z,84.06
2022-10-08T22:18:59.239Z,84.08
2022-10-08T22:21:25.820Z,84.31
2022-10-08T22:23:52.790Z,84.36
2022-10-08T22:26:22.652Z,84.53
2022-10-08T22:28:50.152Z,84.30
2022-10-08T22:31:18.119Z,84.25
2022-10-08T22:33:44.655Z,84.59
2022-10-08T22:36:21.622Z,84.68
2022-10-08T22:38:48.623Z,85.02
2022-10-08T22:41:23.448Z,85.19
2022-10-08T22:43:49.969Z,85.38
2022-10-08T22:46:22.163Z,85.63
2022-10-08T22:48:49.026Z,85.80
2022-10-08T22:51:21.453Z,85.92
2022-10-08T22:53:48.516Z,86.23
2022-10-08T22:56:18.625Z,86.47
2022-10-08T22:58:45.776Z,86.63
2022-10-08T23:01:14.753Z,86.82
2022-10-08T23:03:41.887Z,86.92
2022-10-08T23:06:21.963Z,86.87
2022-10-08T23:08:53.356Z,86.55
2022-10-08T23:11:19.883Z,86.74
2022-10-08T23:13:50.612Z,86.94
2022-10-08T23:16:17.513Z,86.95
2022-10-08T23:18:46.500Z,86.97
2022-10-08T23:21:15.856Z,87.25
2022-10-08T23:23:46.990Z,87.58
2022-10-08T23:26:15.813Z,87.68
2022-10-08T23:28:43.661Z,87.77
2022-10-08T23:31:16.131Z,87.82
2022-10-08T23:33:45.163Z,88.18
2022-10-08T23:36:13.980Z,87.84
2022-10-08T23:38:40.749Z,87.86
2022-10-08T23:41:09.445Z,87.99
2022-10-08T23:43:37.802Z,88.01
2022-10-08T23:46:05.936Z,87.89
2022-10-08T23:48:32.711Z,87.97
2022-10-08T23:50:59.654Z,88.04
2022-10-08T23:53:26.100Z,87.77
2022-10-08T23:55:53.997Z,87.85
2022-10-08T23:58:20.410Z,87.81
